sensor_id;sensor_type;location;lat;lon;timestamp;P1;durP1;ratioP1;P2;durP2;ratioP2
42084;SDS011;27746;52.228;20.890;2022-08-21T00:02:18;9.23;;;4.35;;
42084;SDS011;27746;52.228;20.890;2022-08-21T00:04:47;9.18;;;4.95;;
42084;SDS011;27746;52.228;20.890;2022-08-21T00:07:14;12.05;;;4.80;;
42084;SDS011;27746;52.228;20.890;2022-08-21T00:09:41;7.18;;;4.93;;
42084;SDS011;27746;52.228;20.890;2022-08-21T00:12:07;8.40;;;4.22;;
42084;SDS011;27746;52.228;20.890;2022-08-21T00:14:34;8.45;;;4.63;;
42084;SDS011;27746;52.228;20.890;2022-08-21T00:17:03;6.75;;;4.75;;
42084;SDS011;27746;52.228;20.890;2022-08-21T00:19:31;9.95;;;4.75;;
42084;SDS011;27746;52.228;20.890;2022-08-21T00:21:59;8.55;;;4.50;;
42084;SDS011;27746;52.228;20.890;2022-08-21T00:24:27;6.10;;;4.50;;
42084;SDS011;27746;52.228;20.890;2022-08-21T00:26:53;7.18;;;4.22;;
42084;SDS011;27746;52.228;20.890;2022-08-21T00:29:20;6.70;;;4.57;;
42084;SDS011;27746;52.228;20.890;2022-08-21T00:31:47;6.47;;;4.35;;
42084;SDS011;27746;52.228;20.890;2022-08-21T00:34:15;7.13;;;4.57;;
42084;SDS011;27746;52.228;20.890;2022-08-21T00:36:42;7.50;;;4.28;;
42084;SDS011;27746;52.228;20.890;2022-08-21T00:39:09;10.48;;;4.45;;
42084;SDS011;27746;52.228;20.890;2022-08-21T00:41:38;7.10;;;4.50;;
42084;SDS011;27746;52.228;20.890;2022-08-21T00:44:06;8.13;;;5.25;;
42084;SDS011;27746;52.228;20.890;2022-08-21T00:46:34;9.13;;;5.07;;
42084;SDS011;27746;52.228;20.890;2022-08-21T00:49:01;6.07;;;4.40;;
42084;SDS011;27746;52.228;20.890;2022-08-21T00:51:33;7.28;;;4.20;;
42084;SDS011;27746;52.228;20.890;2022-08-21T00:54:04;7.65;;;4.45;;
42084;SDS011;27746;52.228;20.890;2022-08-21T00:56:33;6.05;;;4.35;;
42084;SDS011;27746;52.228;20.890;2022-08-21T00:59:02;7.57;;;4.43;;
42084;SDS011;27746;52.228;20.890;2022-08-21T01:01:29;6.15;;;4.63;;
42084;SDS011;27746;52.228;20.890;2022-08-21T01:03:56;7.18;;;4.45;;
42084;SDS011;27746;52.228;20.890;2022-08-21T01:06:23;12.90;;;4.60;;
42084;SDS011;27746;52.228;20.890;2022-08-21T01:08:51;8.30;;;4.88;;
42084;SDS011;27746;52.228;20.890;2022-08-21T01:11:18;7.43;;;4.32;;
42084;SDS011;27746;52.228;20.890;2022-08-21T01:13:46;7.32;;;5.40;;
42084;SDS011;27746;52.228;20.890;2022-08-21T01:16:15;6.72;;;4.68;;
42084;SDS011;27746;52.228;20.890;2022-08-21T01:18:44;7.55;;;4.30;;
42084;SDS011;27746;52.228;20.890;2022-08-21T01:21:14;5.47;;;3.88;;
42084;SDS011;27746;52.228;20.890;2022-08-21T01:23:44;7.90;;;4.85;;
42084;SDS011;27746;52.228;20.890;2022-08-21T01:26:14;6.68;;;4.28;;
42084;SDS011;27746;52.228;20.890;2022-08-21T01:28:44;6.10;;;4.20;;
42084;SDS011;27746;52.228;20.890;2022-08-21T01:31:14;6.28;;;4.80;;
42084;SDS011;27746;52.228;20.890;2022-08-21T01:33:43;6.03;;;4.40;;
42084;SDS011;27746;52.228;20.890;2022-08-21T01:36:10;13.13;;;4.78;;
42084;SDS011;27746;52.228;20.890;2022-08-21T01:38:38;9.00;;;4.70;;
42084;SDS011;27746;52.228;20.890;2022-08-21T01:41:05;7.93;;;4.15;;
42084;SDS011;27746;52.228;20.890;2022-08-21T01:43:31;8.15;;;4.57;;
42084;SDS011;27746;52.228;20.890;2022-08-21T01:46:00;9.18;;;5.05;;
42084;SDS011;27746;52.228;20.890;2022-08-21T01:48:28;8.60;;;4.53;;
42084;SDS011;27746;52.228;20.890;2022-08-21T01:50:55;10.98;;;5.72;;
42084;SDS011;27746;52.228;20.890;2022-08-21T01:53:22;7.60;;;4.90;;
42084;SDS011;27746;52.228;20.890;2022-08-21T01:55:50;7.03;;;4.43;;
42084;SDS011;27746;52.228;20.890;2022-08-21T01:58:17;5.82;;;4.75;;
42084;SDS011;27746;52.228;20.890;2022-08-21T02:00:43;9.75;;;4.70;;
42084;SDS011;27746;52.228;20.890;2022-08-21T02:03:10;9.10;;;4.93;;
42084;SDS011;27746;52.228;20.890;2022-08-21T02:05:37;5.85;;;4.40;;
42084;SDS011;27746;52.228;20.890;2022-08-21T02:08:05;9.13;;;4.47;;
42084;SDS011;27746;52.228;20.890;2022-08-21T02:10:32;7.47;;;4.60;;
42084;SDS011;27746;52.228;20.890;2022-08-21T02:13:01;8.07;;;4.47;;
42084;SDS011;27746;52.228;20.890;2022-08-21T02:15:28;8.30;;;5.00;;
42084;SDS011;27746;52.228;20.890;2022-08-21T02:17:57;5.47;;;4.25;;
42084;SDS011;27746;52.228;20.890;2022-08-21T02:20:26;10.45;;;4.63;;
42084;SDS011;27746;52.228;20.890;2022-08-21T02:22:54;7.25;;;4.90;;
42084;SDS011;27746;52.228;20.890;2022-08-21T02:25:22;7.57;;;4.63;;
42084;SDS011;27746;52.228;20.890;2022-08-21T02:27:50;7.80;;;4.50;;
42084;SDS011;27746;52.228;20.890;2022-08-21T02:30:22;6.95;;;4.85;;
42084;SDS011;27746;52.228;20.890;2022-08-21T02:32:50;6.63;;;4.20;;
42084;SDS011;27746;52.228;20.890;2022-08-21T02:35:17;8.98;;;5.00;;
42084;SDS011;27746;52.228;20.890;2022-08-21T02:37:46;7.85;;;4.38;;
42084;SDS011;27746;52.228;20.890;2022-08-21T02:40:14;8.68;;;4.45;;
42084;SDS011;27746;52.228;20.890;2022-08-21T02:42:42;8.55;;;4.00;;
42084;SDS011;27746;52.228;20.890;2022-08-21T02:45:10;6.03;;;4.70;;
42084;SDS011;27746;52.228;20.890;2022-08-21T02:47:38;6.85;;;4.45;;
42084;SDS011;27746;52.228;20.890;2022-08-21T02:50:06;5.88;;;3.92;;
42084;SDS011;27746;52.228;20.890;2022-08-21T02:52:33;9.07;;;4.07;;
42084;SDS011;27746;52.228;20.890;2022-08-21T02:55:00;6.28;;;4.30;;
42084;SDS011;27746;52.228;20.890;2022-08-21T02:57:27;6.35;;;4.40;;
42084;SDS011;27746;52.228;20.890;2022-08-21T02:59:53;7.45;;;4.22;;
42084;SDS011;27746;52.228;20.890;2022-08-21T03:02:20;11.20;;;4.90;;
42084;SDS011;27746;52.228;20.890;2022-08-21T03:04:48;6.50;;;4.53;;
42084;SDS011;27746;52.228;20.890;2022-08-21T03:07:15;6.63;;;4.70;;
42084;SDS011;27746;52.228;20.890;2022-08-21T03:09:42;6.10;;;4.22;;
42084;SDS011;27746;52.228;20.890;2022-08-21T03:12:09;8.02;;;4.93;;
42084;SDS011;27746;52.228;20.890;2022-08-21T03:14:36;5.90;;;4.47;;
42084;SDS011;27746;52.228;20.890;2022-08-21T03:17:03;7.05;;;4.53;;
42084;SDS011;27746;52.228;20.890;2022-08-21T03:19:30;8.75;;;4.93;;
42084;SDS011;27746;52.228;20.890;2022-08-21T03:21:58;7.82;;;4.80;;
42084;SDS011;27746;52.228;20.890;2022-08-21T03:24:26;8.15;;;4.45;;
42084;SDS011;27746;52.228;20.890;2022-08-21T03:26:53;8.93;;;5.50;;
42084;SDS011;27746;52.228;20.890;2022-08-21T03:29:19;8.90;;;5.20;;
42084;SDS011;27746;52.228;20.890;2022-08-21T03:31:46;6.97;;;4.93;;
42084;SDS011;27746;52.228;20.890;2022-08-21T03:34:13;8.27;;;5.45;;
42084;SDS011;27746;52.228;20.890;2022-08-21T03:36:40;7.85;;;4.70;;
42084;SDS011;27746;52.228;20.890;2022-08-21T03:39:08;11.48;;;5.32;;
42084;SDS011;27746;52.228;20.890;2022-08-21T03:41:35;9.77;;;4.97;;
42084;SDS011;27746;52.228;20.890;2022-08-21T03:44:02;6.03;;;4.50;;
42084;SDS011;27746;52.228;20.890;2022-08-21T03:46:29;10.77;;;4.75;;
42084;SDS011;27746;52.228;20.890;2022-08-21T03:48:56;6.22;;;4.80;;
42084;SDS011;27746;52.228;20.890;2022-08-21T03:51:23;8.27;;;5.25;;
42084;SDS011;27746;52.228;20.890;2022-08-21T03:53:51;7.53;;;4.65;;
42084;SDS011;27746;52.228;20.890;2022-08-21T03:56:20;7.55;;;5.18;;
42084;SDS011;27746;52.228;20.890;2022-08-21T03:58:47;7.10;;;4.20;;
42084;SDS011;27746;52.228;20.890;2022-08-21T04:01:15;8.10;;;5.15;;
42084;SDS011;27746;52.228;20.890;2022-08-21T04:03:42;8.35;;;5.40;;
42084;SDS011;27746;52.228;20.890;2022-08-21T04:06:09;9.10;;;5.30;;
42084;SDS011;27746;52.228;20.890;2022-08-21T04:08:35;9.65;;;5.40;;
42084;SDS011;27746;52.228;20.890;2022-08-21T04:11:03;9.45;;;4.90;;
42084;SDS011;27746;52.228;20.890;2022-08-21T04:13:32;7.72;;;4.15;;
42084;SDS011;27746;52.228;20.890;2022-08-21T04:15:59;8.73;;;5.32;;
42084;SDS011;27746;52.228;20.890;2022-08-21T04:18:25;6.30;;;4.68;;
42084;SDS011;27746;52.228;20.890;2022-08-21T04:20:52;6.15;;;4.30;;
42084;SDS011;27746;52.228;20.890;2022-08-21T04:23:21;8.27;;;5.15;;
42084;SDS011;27746;52.228;20.890;2022-08-21T04:25:48;8.10;;;4.82;;
42084;SDS011;27746;52.228;20.890;2022-08-21T04:28:15;7.93;;;5.65;;
42084;SDS011;27746;52.228;20.890;2022-08-21T04:30:46;13.65;;;5.30;;
42084;SDS011;27746;52.228;20.890;2022-08-21T04:33:13;8.77;;;5.50;;
42084;SDS011;27746;52.228;20.890;2022-08-21T04:35:40;7.75;;;5.22;;
42084;SDS011;27746;52.228;20.890;2022-08-21T04:38:08;7.03;;;4.93;;
42084;SDS011;27746;52.228;20.890;2022-08-21T04:40:35;8.77;;;4.97;;
42084;SDS011;27746;52.228;20.890;2022-08-21T04:43:03;6.93;;;4.82;;
42084;SDS011;27746;52.228;20.890;2022-08-21T04:45:32;7.25;;;5.00;;
42084;SDS011;27746;52.228;20.890;2022-08-21T04:48:04;7.05;;;5.32;;
42084;SDS011;27746;52.228;20.890;2022-08-21T04:50:35;8.05;;;5.28;;
42084;SDS011;27746;52.228;20.890;2022-08-21T04:53:05;9.93;;;5.63;;
42084;SDS011;27746;52.228;20.890;2022-08-21T04:55:34;6.95;;;5.03;;
42084;SDS011;27746;52.228;20.890;2022-08-21T04:58:02;6.03;;;4.38;;
42084;SDS011;27746;52.228;20.890;2022-08-21T05:00:33;7.55;;;4.93;;
42084;SDS011;27746;52.228;20.890;2022-08-21T05:03:00;7.43;;;4.97;;
42084;SDS011;27746;52.228;20.890;2022-08-21T05:05:31;6.47;;;5.28;;
42084;SDS011;27746;52.228;20.890;2022-08-21T05:07:59;9.00;;;4.60;;
42084;SDS011;27746;52.228;20.890;2022-08-21T05:10:28;6.43;;;4.57;;
42084;SDS011;27746;52.228;20.890;2022-08-21T05:12:56;7.57;;;5.18;;
42084;SDS011;27746;52.228;20.890;2022-08-21T05:15:23;7.38;;;5.22;;
42084;SDS011;27746;52.228;20.890;2022-08-21T05:17:50;9.77;;;5.35;;
42084;SDS011;27746;52.228;20.890;2022-08-21T05:20:18;7.80;;;5.18;;
42084;SDS011;27746;52.228;20.890;2022-08-21T05:22:45;7.10;;;4.63;;
42084;SDS011;27746;52.228;20.890;2022-08-21T05:25:12;6.70;;;4.75;;
42084;SDS011;27746;52.228;20.890;2022-08-21T05:27:39;7.07;;;4.88;;
42084;SDS011;27746;52.228;20.890;2022-08-21T05:30:08;8.07;;;4.80;;
42084;SDS011;27746;52.228;20.890;2022-08-21T05:32:36;6.85;;;5.10;;
42084;SDS011;27746;52.228;20.890;2022-08-21T05:35:03;8.00;;;5.38;;
42084;SDS011;27746;52.228;20.890;2022-08-21T05:37:33;7.35;;;5.30;;
42084;SDS011;27746;52.228;20.890;2022-08-21T05:40:02;7.78;;;5.20;;
42084;SDS011;27746;52.228;20.890;2022-08-21T05:42:32;7.50;;;4.97;;
42084;SDS011;27746;52.228;20.890;2022-08-21T05:44:59;11.50;;;5.78;;
42084;SDS011;27746;52.228;20.890;2022-08-21T05:47:26;8.18;;;5.00;;
42084;SDS011;27746;52.228;20.890;2022-08-21T05:49:52;10.15;;;5.93;;
42084;SDS011;27746;52.228;20.890;2022-08-21T05:52:19;9.50;;;5.18;;
42084;SDS011;27746;52.228;20.890;2022-08-21T05:54:48;8.73;;;5.40;;
42084;SDS011;27746;52.228;20.890;2022-08-21T05:57:15;8.65;;;5.03;;
42084;SDS011;27746;52.228;20.890;2022-08-21T05:59:42;7.85;;;5.32;;
42084;SDS011;27746;52.228;20.890;2022-08-21T06:02:09;6.30;;;4.63;;
42084;SDS011;27746;52.228;20.890;2022-08-21T06:04:36;8.57;;;5.32;;
42084;SDS011;27746;52.228;20.890;2022-08-21T06:07:03;6.80;;;5.55;;
42084;SDS011;27746;52.228;20.890;2022-08-21T06:09:32;8.15;;;5.20;;
42084;SDS011;27746;52.228;20.890;2022-08-21T06:12:04;9.23;;;5.30;;
42084;SDS011;27746;52.228;20.890;2022-08-21T06:14:31;7.28;;;5.43;;
42084;SDS011;27746;52.228;20.890;2022-08-21T06:17:01;12.13;;;5.25;;
42084;SDS011;27746;52.228;20.890;2022-08-21T06:19:28;6.65;;;4.75;;
42084;SDS011;27746;52.228;20.890;2022-08-21T06:21:55;8.70;;;5.22;;
42084;SDS011;27746;52.228;20.890;2022-08-21T06:24:22;7.28;;;5.22;;
42084;SDS011;27746;52.228;20.890;2022-08-21T06:26:48;10.30;;;5.22;;
42084;SDS011;27746;52.228;20.890;2022-08-21T06:29:17;7.85;;;5.03;;
42084;SDS011;27746;52.228;20.890;2022-08-21T06:31:45;8.02;;;5.65;;
42084;SDS011;27746;52.228;20.890;2022-08-21T06:34:13;9.05;;;5.72;;
42084;SDS011;27746;52.228;20.890;2022-08-21T06:36:40;6.60;;;4.85;;
42084;SDS011;27746;52.228;20.890;2022-08-21T06:39:07;9.60;;;5.10;;
42084;SDS011;27746;52.228;20.890;2022-08-21T06:41:34;8.82;;;5.50;;
42084;SDS011;27746;52.228;20.890;2022-08-21T06:44:01;8.50;;;5.15;;
42084;SDS011;27746;52.228;20.890;2022-08-21T06:46:29;8.02;;;5.05;;
42084;SDS011;27746;52.228;20.890;2022-08-21T06:48:56;9.02;;;5.60;;
42084;SDS011;27746;52.228;20.890;2022-08-21T06:51:23;7.05;;;5.20;;
42084;SDS011;27746;52.228;20.890;2022-08-21T06:53:51;8.05;;;4.75;;
42084;SDS011;27746;52.228;20.890;2022-08-21T06:56:18;8.38;;;5.30;;
42084;SDS011;27746;52.228;20.890;2022-08-21T06:58:46;9.52;;;4.97;;
42084;SDS011;27746;52.228;20.890;2022-08-21T07:01:13;5.25;;;4.28;;
42084;SDS011;27746;52.228;20.890;2022-08-21T07:03:42;8.18;;;5.18;;
42084;SDS011;27746;52.228;20.890;2022-08-21T07:06:09;6.63;;;4.88;;
42084;SDS011;27746;52.228;20.890;2022-08-21T07:08:37;9.18;;;5.70;;
42084;SDS011;27746;52.228;20.890;2022-08-21T07:11:07;8.13;;;5.03;;
42084;SDS011;27746;52.228;20.890;2022-08-21T07:13:37;10.65;;;5.65;;
42084;SDS011;27746;52.228;20.890;2022-08-21T07:16:06;8.50;;;4.97;;
42084;SDS011;27746;52.228;20.890;2022-08-21T07:18:33;6.82;;;5.28;;
42084;SDS011;27746;52.228;20.890;2022-08-21T07:21:01;8.40;;;4.65;;
42084;SDS011;27746;52.228;20.890;2022-08-21T07:23:34;7.18;;;5.00;;
42084;SDS011;27746;52.228;20.890;2022-08-21T07:26:03;6.50;;;4.55;;
42084;SDS011;27746;52.228;20.890;2022-08-21T07:28:30;6.32;;;4.30;;
42084;SDS011;27746;52.228;20.890;2022-08-21T07:30:58;7.88;;;5.13;;
42084;SDS011;27746;52.228;20.890;2022-08-21T07:33:26;7.82;;;4.45;;
42084;SDS011;27746;52.228;20.890;2022-08-21T07:35:54;8.80;;;5.70;;
42084;SDS011;27746;52.228;20.890;2022-08-21T07:38:23;6.85;;;5.30;;
42084;SDS011;27746;52.228;20.890;2022-08-21T07:40:50;6.68;;;4.35;;
42084;SDS011;27746;52.228;20.890;2022-08-21T07:43:18;6.43;;;4.28;;
42084;SDS011;27746;52.228;20.890;2022-08-21T07:45:45;7.13;;;4.70;;
42084;SDS011;27746;52.228;20.890;2022-08-21T07:48:12;6.93;;;4.63;;
42084;SDS011;27746;52.228;20.890;2022-08-21T07:50:45;5.95;;;3.92;;
42084;SDS011;27746;52.228;20.890;2022-08-21T07:53:12;6.88;;;4.47;;
42084;SDS011;27746;52.228;20.890;2022-08-21T07:55:44;7.00;;;4.47;;
42084;SDS011;27746;52.228;20.890;2022-08-21T07:58:12;8.77;;;4.70;;
42084;SDS011;27746;52.228;20.890;2022-08-21T08:00:39;6.97;;;4.80;;
42084;SDS011;27746;52.228;20.890;2022-08-21T08:03:07;6.32;;;4.70;;
42084;SDS011;27746;52.228;20.890;2022-08-21T08:05:33;9.00;;;4.97;;
42084;SDS011;27746;52.228;20.890;2022-08-21T08:08:02;7.28;;;4.68;;
42084;SDS011;27746;52.228;20.890;2022-08-21T08:10:29;7.05;;;4.72;;
42084;SDS011;27746;52.228;20.890;2022-08-21T08:12:57;8.10;;;4.82;;
42084;SDS011;27746;52.228;20.890;2022-08-21T08:15:25;7.88;;;4.60;;
42084;SDS011;27746;52.228;20.890;2022-08-21T08:17:53;6.40;;;4.13;;
42084;SDS011;27746;52.228;20.890;2022-08-21T08:20:21;5.80;;;4.00;;
42084;SDS011;27746;52.228;20.890;2022-08-21T08:22:48;8.55;;;3.78;;
42084;SDS011;27746;52.228;20.890;2022-08-21T08:25:16;7.68;;;4.32;;
42084;SDS011;27746;52.228;20.890;2022-08-21T08:27:43;10.18;;;4.35;;
42084;SDS011;27746;52.228;20.890;2022-08-21T08:30:12;6.32;;;3.90;;
42084;SDS011;27746;52.228;20.890;2022-08-21T08:32:40;7.97;;;4.43;;
42084;SDS011;27746;52.228;20.890;2022-08-21T08:35:07;5.38;;;4.28;;
42084;SDS011;27746;52.228;20.890;2022-08-21T08:37:36;8.02;;;4.90;;
42084;SDS011;27746;52.228;20.890;2022-08-21T08:40:05;6.80;;;4.85;;
42084;SDS011;27746;52.228;20.890;2022-08-21T08:42:33;8.75;;;4.95;;
42084;SDS011;27746;52.228;20.890;2022-08-21T08:45:04;8.07;;;4.85;;
42084;SDS011;27746;52.228;20.890;2022-08-21T08:47:36;6.90;;;4.43;;
42084;SDS011;27746;52.228;20.890;2022-08-21T08:50:06;8.65;;;4.80;;
42084;SDS011;27746;52.228;20.890;2022-08-21T08:52:39;8.40;;;4.47;;
42084;SDS011;27746;52.228;20.890;2022-08-21T08:55:10;7.32;;;3.90;;
42084;SDS011;27746;52.228;20.890;2022-08-21T08:57:42;11.60;;;4.97;;
42084;SDS011;27746;52.228;20.890;2022-08-21T09:00:12;7.45;;;4.40;;
42084;SDS011;27746;52.228;20.890;2022-08-21T09:02:45;7.25;;;4.40;;
42084;SDS011;27746;52.228;20.890;2022-08-21T09:05:16;6.97;;;3.83;;
42084;SDS011;27746;52.228;20.890;2022-08-21T09:07:50;5.80;;;3.85;;
42084;SDS011;27746;52.228;20.890;2022-08-21T09:10:30;9.27;;;4.53;;
42084;SDS011;27746;52.228;20.890;2022-08-21T09:13:06;6.88;;;4.40;;
42084;SDS011;27746;52.228;20.890;2022-08-21T09:15:44;10.70;;;4.47;;
42084;SDS011;27746;52.228;20.890;2022-08-21T09:18:28;12.25;;;4.05;;
42084;SDS011;27746;52.228;20.890;2022-08-21T09:21:06;8.10;;;4.20;;
42084;SDS011;27746;52.228;20.890;2022-08-21T09:23:42;6.88;;;4.30;;
42084;SDS011;27746;52.228;20.890;2022-08-21T09:26:16;6.65;;;3.78;;
42084;SDS011;27746;52.228;20.890;2022-08-21T09:28:45;5.40;;;3.55;;
42084;SDS011;27746;52.228;20.890;2022-08-21T09:31:21;6.88;;;4.07;;
42084;SDS011;27746;52.228;20.890;2022-08-21T09:33:56;9.40;;;4.68;;
42084;SDS011;27746;52.228;20.890;2022-08-21T09:36:24;6.25;;;3.80;;
42084;SDS011;27746;52.228;20.890;2022-08-21T09:38:55;7.63;;;3.92;;
42084;SDS011;27746;52.228;20.890;2022-08-21T09:41:26;6.95;;;3.70;;
42084;SDS011;27746;52.228;20.890;2022-08-21T09:43:54;5.57;;;3.70;;
42084;SDS011;27746;52.228;20.890;2022-08-21T09:46:21;5.97;;;3.97;;
42084;SDS011;27746;52.228;20.890;2022-08-21T09:48:50;6.60;;;3.83;;
42084;SDS011;27746;52.228;20.890;2022-08-21T09:51:20;6.07;;;4.50;;
42084;SDS011;27746;52.228;20.890;2022-08-21T09:53:50;5.50;;;3.58;;
42084;SDS011;27746;52.228;20.890;2022-08-21T09:56:21;6.57;;;4.00;;
42084;SDS011;27746;52.228;20.890;2022-08-21T09:59:15;5.25;;;3.67;;
42084;SDS011;27746;52.228;20.890;2022-08-21T10:01:45;9.52;;;4.43;;
42084;SDS011;27746;52.228;20.890;2022-08-21T10:04:18;5.60;;;3.92;;
42084;SDS011;27746;52.228;20.890;2022-08-21T10:06:47;7.05;;;4.28;;
42084;SDS011;27746;52.228;20.890;2022-08-21T10:09:14;5.47;;;3.70;;
42084;SDS011;27746;52.228;20.890;2022-08-21T10:11:45;6.03;;;4.22;;
42084;SDS011;27746;52.228;20.890;2022-08-21T10:14:29;6.07;;;3.95;;
42084;SDS011;27746;52.228;20.890;2022-08-21T10:17:12;7.93;;;3.83;;
42084;SDS011;27746;52.228;20.890;2022-08-21T10:19:46;6.43;;;3.45;;
42084;SDS011;27746;52.228;20.890;2022-08-21T10:22:23;5.50;;;3.75;;
42084;SDS011;27746;52.228;20.890;2022-08-21T10:25:01;5.47;;;3.35;;
42084;SDS011;27746;52.228;20.890;2022-08-21T10:27:36;4.95;;;3.80;;
42084;SDS011;27746;52.228;20.890;2022-08-21T10:30:10;6.20;;;4.20;;
42084;SDS011;27746;52.228;20.890;2022-08-21T10:32:51;5.70;;;3.65;;
42084;SDS011;27746;52.228;20.890;2022-08-21T10:35:29;5.88;;;3.80;;
42084;SDS011;27746;52.228;20.890;2022-08-21T10:38:29;7.38;;;3.60;;
42084;SDS011;27746;52.228;20.890;2022-08-21T10:41:11;6.90;;;3.78;;
42084;SDS011;27746;52.228;20.890;2022-08-21T10:43:45;6.55;;;4.40;;
42084;SDS011;27746;52.228;20.890;2022-08-21T10:46:21;5.15;;;3.42;;
42084;SDS011;27746;52.228;20.890;2022-08-21T10:49:04;8.15;;;3.38;;
42084;SDS011;27746;52.228;20.890;2022-08-21T10:51:47;10.20;;;3.63;;
42084;SDS011;27746;52.228;20.890;2022-08-21T10:54:22;4.65;;;2.97;;
42084;SDS011;27746;52.228;20.890;2022-08-21T10:56:59;6.47;;;3.35;;
42084;SDS011;27746;52.228;20.890;2022-08-21T10:59:33;5.65;;;3.55;;
42084;SDS011;27746;52.228;20.890;2022-08-21T11:02:08;4.95;;;3.67;;
42084;SDS011;27746;52.228;20.890;2022-08-21T11:04:42;5.72;;;3.78;;
42084;SDS011;27746;52.228;20.890;2022-08-21T11:07:21;5.63;;;3.15;;
42084;SDS011;27746;52.228;20.890;2022-08-21T11:09:55;5.30;;;3.30;;
42084;SDS011;27746;52.228;20.890;2022-08-21T11:12:27;5.15;;;3.42;;
42084;SDS011;27746;52.228;20.890;2022-08-21T11:15:00;6.15;;;3.38;;
42084;SDS011;27746;52.228;20.890;2022-08-21T11:20:03;7.57;;;3.40;;
42084;SDS011;27746;52.228;20.890;2022-08-21T11:22:37;7.22;;;3.63;;
42084;SDS011;27746;52.228;20.890;2022-08-21T11:25:10;4.90;;;3.25;;
42084;SDS011;27746;52.228;20.890;2022-08-21T11:27:43;5.78;;;3.05;;
42084;SDS011;27746;52.228;20.890;2022-08-21T11:30:15;5.72;;;3.20;;
42084;SDS011;27746;52.228;20.890;2022-08-21T11:32:48;6.22;;;3.55;;
42084;SDS011;27746;52.228;20.890;2022-08-21T11:35:26;8.13;;;3.97;;
42084;SDS011;27746;52.228;20.890;2022-08-21T11:38:05;8.43;;;4.07;;
42084;SDS011;27746;52.228;20.890;2022-08-21T11:40:52;4.32;;;3.15;;
42084;SDS011;27746;52.228;20.890;2022-08-21T11:43:31;5.25;;;3.05;;
42084;SDS011;27746;52.228;20.890;2022-08-21T11:46:07;4.72;;;3.33;;
42084;SDS011;27746;52.228;20.890;2022-08-21T11:48:46;4.60;;;3.60;;
42084;SDS011;27746;52.228;20.890;2022-08-21T11:51:25;4.60;;;3.15;;
42084;SDS011;27746;52.228;20.890;2022-08-21T11:53:58;4.25;;;3.35;;
42084;SDS011;27746;52.228;20.890;2022-08-21T11:56:31;3.97;;;2.72;;
42084;SDS011;27746;52.228;20.890;2022-08-21T11:59:02;6.03;;;3.45;;
42084;SDS011;27746;52.228;20.890;2022-08-21T12:01:36;5.95;;;3.10;;
42084;SDS011;27746;52.228;20.890;2022-08-21T12:04:25;4.78;;;3.25;;
42084;SDS011;27746;52.228;20.890;2022-08-21T12:09:59;4.00;;;3.05;;
42084;SDS011;27746;52.228;20.890;2022-08-21T12:12:27;5.85;;;3.50;;
42084;SDS011;27746;52.228;20.890;2022-08-21T12:17:53;4.97;;;3.08;;
42084;SDS011;27746;52.228;20.890;2022-08-21T12:20:26;5.50;;;3.20;;
42084;SDS011;27746;52.228;20.890;2022-08-21T12:23:19;5.55;;;3.05;;
42084;SDS011;27746;52.228;20.890;2022-08-21T12:26:01;5.47;;;2.92;;
42084;SDS011;27746;52.228;20.890;2022-08-21T12:28:36;5.22;;;2.65;;
42084;SDS011;27746;52.228;20.890;2022-08-21T12:31:16;4.97;;;2.50;;
42084;SDS011;27746;52.228;20.890;2022-08-21T12:33:49;4.57;;;2.55;;
42084;SDS011;27746;52.228;20.890;2022-08-21T12:36:19;3.95;;;2.40;;
42084;SDS011;27746;52.228;20.890;2022-08-21T12:38:51;3.28;;;2.40;;
42084;SDS011;27746;52.228;20.890;2022-08-21T12:41:22;4.22;;;2.58;;
42084;SDS011;27746;52.228;20.890;2022-08-21T12:43:56;4.40;;;2.88;;
42084;SDS011;27746;52.228;20.890;2022-08-21T12:46:32;5.10;;;3.13;;
42084;SDS011;27746;52.228;20.890;2022-08-21T12:49:12;5.07;;;2.90;;
42084;SDS011;27746;52.228;20.890;2022-08-21T12:51:48;4.80;;;2.70;;
42084;SDS011;27746;52.228;20.890;2022-08-21T12:54:22;4.60;;;2.38;;
42084;SDS011;27746;52.228;20.890;2022-08-21T12:56:58;5.13;;;2.87;;
42084;SDS011;27746;52.228;20.890;2022-08-21T12:59:28;3.55;;;2.55;;
42084;SDS011;27746;52.228;20.890;2022-08-21T13:02:05;5.50;;;3.25;;
42084;SDS011;27746;52.228;20.890;2022-08-21T13:04:41;10.77;;;3.25;;
42084;SDS011;27746;52.228;20.890;2022-08-21T13:07:10;4.38;;;2.75;;
42084;SDS011;27746;52.228;20.890;2022-08-21T13:09:46;5.55;;;3.00;;
42084;SDS011;27746;52.228;20.890;2022-08-21T13:12:17;5.25;;;2.75;;
42084;SDS011;27746;52.228;20.890;2022-08-21T13:14:48;3.58;;;2.60;;
42084;SDS011;27746;52.228;20.890;2022-08-21T13:17:19;3.60;;;2.20;;
42084;SDS011;27746;52.228;20.890;2022-08-21T13:19:54;12.93;;;5.13;;
42084;SDS011;27746;52.228;20.890;2022-08-21T13:22:22;7.35;;;2.90;;
42084;SDS011;27746;52.228;20.890;2022-08-21T13:24:50;6.38;;;2.90;;
42084;SDS011;27746;52.228;20.890;2022-08-21T13:27:21;9.55;;;3.05;;
42084;SDS011;27746;52.228;20.890;2022-08-21T13:30:00;5.10;;;2.85;;
42084;SDS011;27746;52.228;20.890;2022-08-21T13:32:29;3.67;;;2.70;;
42084;SDS011;27746;52.228;20.890;2022-08-21T13:34:58;5.72;;;2.80;;
42084;SDS011;27746;52.228;20.890;2022-08-21T13:37:33;3.38;;;2.45;;
42084;SDS011;27746;52.228;20.890;2022-08-21T13:40:00;5.50;;;2.80;;
42084;SDS011;27746;52.228;20.890;2022-08-21T13:42:29;4.50;;;2.80;;
42084;SDS011;27746;52.228;20.890;2022-08-21T13:44:56;4.07;;;2.58;;
42084;SDS011;27746;52.228;20.890;2022-08-21T13:47:23;7.88;;;3.08;;
42084;SDS011;27746;52.228;20.890;2022-08-21T13:49:50;7.18;;;2.80;;
42084;SDS011;27746;52.228;20.890;2022-08-21T13:52:19;5.25;;;3.40;;
42084;SDS011;27746;52.228;20.890;2022-08-21T13:54:52;4.90;;;3.30;;
42084;SDS011;27746;52.228;20.890;2022-08-21T13:57:24;4.13;;;2.95;;
42084;SDS011;27746;52.228;20.890;2022-08-21T13:59:53;6.75;;;3.28;;
42084;SDS011;27746;52.228;20.890;2022-08-21T14:02:38;5.70;;;3.20;;
42084;SDS011;27746;52.228;20.890;2022-08-21T14:05:06;5.97;;;2.88;;
42084;SDS011;27746;52.228;20.890;2022-08-21T14:07:40;4.57;;;3.00;;
42084;SDS011;27746;52.228;20.890;2022-08-21T14:10:11;6.57;;;3.30;;
42084;SDS011;27746;52.228;20.890;2022-08-21T14:12:41;5.70;;;3.63;;
42084;SDS011;27746;52.228;20.890;2022-08-21T14:15:14;4.70;;;3.05;;
42084;SDS011;27746;52.228;20.890;2022-08-21T14:17:42;5.32;;;3.08;;
42084;SDS011;27746;52.228;20.890;2022-08-21T14:20:11;7.03;;;3.10;;
42084;SDS011;27746;52.228;20.890;2022-08-21T14:22:50;6.75;;;3.80;;
42084;SDS011;27746;52.228;20.890;2022-08-21T14:25:26;5.47;;;2.78;;
42084;SDS011;27746;52.228;20.890;2022-08-21T14:27:57;5.18;;;3.08;;
42084;SDS011;27746;52.228;20.890;2022-08-21T14:30:31;4.13;;;2.95;;
42084;SDS011;27746;52.228;20.890;2022-08-21T14:32:59;5.55;;;3.03;;
42084;SDS011;27746;52.228;20.890;2022-08-21T14:35:26;7.72;;;3.10;;
42084;SDS011;27746;52.228;20.890;2022-08-21T14:37:53;5.60;;;3.47;;
42084;SDS011;27746;52.228;20.890;2022-08-21T14:40:22;3.78;;;2.55;;
42084;SDS011;27746;52.228;20.890;2022-08-21T14:42:50;5.75;;;3.20;;
42084;SDS011;27746;52.228;20.890;2022-08-21T14:45:18;5.20;;;3.40;;
42084;SDS011;27746;52.228;20.890;2022-08-21T14:47:48;7.40;;;3.08;;
42084;SDS011;27746;52.228;20.890;2022-08-21T14:50:15;5.97;;;2.88;;
42084;SDS011;27746;52.228;20.890;2022-08-21T14:52:42;4.80;;;3.03;;
42084;SDS011;27746;52.228;20.890;2022-08-21T14:55:10;4.93;;;2.40;;
42084;SDS011;27746;52.228;20.890;2022-08-21T14:57:39;6.85;;;3.35;;
42084;SDS011;27746;52.228;20.890;2022-08-21T15:00:08;4.43;;;2.80;;